Aviation Digital Data Service (ADDS)

Output produced by METARs form (0802 UTC 29 August 2014)
found at http://www.aviationweather.gov/adds/metars/
 
KWWD 290755Z AUTO 36006KT 10SM CLR 17/08 A3010 RMK AO1